Main page
METAR-TAF:

METAR-TAF

Airports :

Harbin, China

Harbin Taiping International Airport

latitude: 45-45N, longitude: 126-46E, elevation: 143 m

Current weather observation

The report was made 10 minutes ago, at 13:00 UTC
Calm wind
Temperature -14°C
Humidity 66%
Pressure 1013 hPa
Visibility 10 km or more
no clouds below 1500 m and no cumulonimbus

METAR: ZYHB 211300Z 00000MPS CAVOK M14/M19 Q1013 NOSIG

Time: 21:10 (13:10 UTC)

Forecast

The report was made 28 hours and 9 minutes ago, at 09:01 UTC
Forecast valid from 20 at 12 UTC to 21 at 12 UTC
Wind 8 kt from the West
Visibility: 5000 m
Scattered clouds at a height of 3300 ft
haze

TAF: ZYHB 200901Z 2012/2112 26004MPS 5000 HZ SCT033 TXM08/06Z TNM20/21Z

Weather observations and forecasts of more than 4000 airports (METAR and TAF reports).

The available stations are represented by yellow and red dots on the map.

Hover mouse over dot to see the name of the station.

Then click to see weather observations and forecasts.

To change the map : click on the green buttons with a black cross to zoom in, on the green button with a dash to zoom out, or on the green arrows for adjacent maps.


METAR-TAF: